sensor_id;sensor_type;location;lat;lon;timestamp;P1;durP1;ratioP1;P2;durP2;ratioP2
5460;SDS011;2753;49.196;8.286;2024-01-07T00:01:24;11.00;;;6.50;;
5460;SDS011;2753;49.196;8.286;2024-01-07T00:03:51;9.00;;;6.40;;
5460;SDS011;2753;49.196;8.286;2024-01-07T00:06:18;13.03;;;7.20;;
5460;SDS011;2753;49.196;8.286;2024-01-07T00:08:43;11.57;;;7.50;;
5460;SDS011;2753;49.196;8.286;2024-01-07T00:11:09;9.60;;;6.13;;
5460;SDS011;2753;49.196;8.286;2024-01-07T00:13:35;10.43;;;6.23;;
5460;SDS011;2753;49.196;8.286;2024-01-07T00:16:01;13.70;;;7.07;;
5460;SDS011;2753;49.196;8.286;2024-01-07T00:18:26;9.90;;;6.70;;
5460;SDS011;2753;49.196;8.286;2024-01-07T00:20:53;13.87;;;7.40;;
5460;SDS011;2753;49.196;8.286;2024-01-07T00:23:18;12.97;;;7.67;;
5460;SDS011;2753;49.196;8.286;2024-01-07T00:25:45;9.73;;;6.60;;
5460;SDS011;2753;49.196;8.286;2024-01-07T00:28:12;9.97;;;6.83;;
5460;SDS011;2753;49.196;8.286;2024-01-07T00:30:37;10.70;;;6.60;;
5460;SDS011;2753;49.196;8.286;2024-01-07T00:33:03;10.17;;;6.80;;
5460;SDS011;2753;49.196;8.286;2024-01-07T00:35:29;11.17;;;6.63;;
5460;SDS011;2753;49.196;8.286;2024-01-07T00:37:55;12.33;;;6.93;;
5460;SDS011;2753;49.196;8.286;2024-01-07T00:40:23;8.63;;;6.60;;
5460;SDS011;2753;49.196;8.286;2024-01-07T00:42:49;12.10;;;7.43;;
5460;SDS011;2753;49.196;8.286;2024-01-07T00:45:16;8.70;;;6.90;;
5460;SDS011;2753;49.196;8.286;2024-01-07T00:47:43;12.90;;;7.97;;
5460;SDS011;2753;49.196;8.286;2024-01-07T00:50:11;11.40;;;7.50;;
5460;SDS011;2753;49.196;8.286;2024-01-07T00:52:37;10.03;;;6.83;;
5460;SDS011;2753;49.196;8.286;2024-01-07T00:55:04;9.03;;;6.30;;
5460;SDS011;2753;49.196;8.286;2024-01-07T00:57:31;12.40;;;7.73;;
5460;SDS011;2753;49.196;8.286;2024-01-07T00:59:57;11.10;;;7.97;;
5460;SDS011;2753;49.196;8.286;2024-01-07T01:02:23;12.73;;;7.60;;
5460;SDS011;2753;49.196;8.286;2024-01-07T01:04:49;14.90;;;7.67;;
5460;SDS011;2753;49.196;8.286;2024-01-07T01:07:14;11.23;;;7.30;;
5460;SDS011;2753;49.196;8.286;2024-01-07T01:09:41;18.33;;;7.57;;
5460;SDS011;2753;49.196;8.286;2024-01-07T01:12:07;11.30;;;6.60;;
5460;SDS011;2753;49.196;8.286;2024-01-07T01:14:32;11.97;;;8.00;;
5460;SDS011;2753;49.196;8.286;2024-01-07T01:16:58;10.13;;;6.80;;
5460;SDS011;2753;49.196;8.286;2024-01-07T01:19:26;16.00;;;7.90;;
5460;SDS011;2753;49.196;8.286;2024-01-07T01:21:53;11.83;;;7.80;;
5460;SDS011;2753;49.196;8.286;2024-01-07T01:24:18;11.60;;;7.20;;
5460;SDS011;2753;49.196;8.286;2024-01-07T01:26:44;14.40;;;7.23;;
5460;SDS011;2753;49.196;8.286;2024-01-07T01:29:10;12.97;;;7.83;;
5460;SDS011;2753;49.196;8.286;2024-01-07T01:31:35;11.70;;;7.07;;
5460;SDS011;2753;49.196;8.286;2024-01-07T01:34:01;11.50;;;7.27;;
5460;SDS011;2753;49.196;8.286;2024-01-07T01:36:27;15.70;;;8.23;;
5460;SDS011;2753;49.196;8.286;2024-01-07T01:38:53;12.43;;;8.10;;
5460;SDS011;2753;49.196;8.286;2024-01-07T01:41:18;13.00;;;7.00;;
5460;SDS011;2753;49.196;8.286;2024-01-07T01:43:44;9.80;;;6.30;;
5460;SDS011;2753;49.196;8.286;2024-01-07T01:46:09;13.73;;;7.97;;
5460;SDS011;2753;49.196;8.286;2024-01-07T01:48:35;12.97;;;6.80;;
5460;SDS011;2753;49.196;8.286;2024-01-07T01:51:02;10.70;;;6.63;;
5460;SDS011;2753;49.196;8.286;2024-01-07T01:53:28;9.47;;;6.47;;
5460;SDS011;2753;49.196;8.286;2024-01-07T01:55:55;10.63;;;7.33;;
5460;SDS011;2753;49.196;8.286;2024-01-07T01:58:23;12.70;;;5.90;;
5460;SDS011;2753;49.196;8.286;2024-01-07T02:00:49;9.87;;;5.87;;
5460;SDS011;2753;49.196;8.286;2024-01-07T02:03:20;12.53;;;6.57;;
5460;SDS011;2753;49.196;8.286;2024-01-07T02:05:46;9.70;;;5.83;;
5460;SDS011;2753;49.196;8.286;2024-01-07T02:08:14;7.63;;;5.30;;
5460;SDS011;2753;49.196;8.286;2024-01-07T02:10:39;8.20;;;5.33;;
5460;SDS011;2753;49.196;8.286;2024-01-07T02:13:05;8.30;;;5.43;;
5460;SDS011;2753;49.196;8.286;2024-01-07T02:15:34;9.57;;;5.53;;
5460;SDS011;2753;49.196;8.286;2024-01-07T02:18:00;10.97;;;6.33;;
5460;SDS011;2753;49.196;8.286;2024-01-07T02:20:25;6.20;;;5.20;;
5460;SDS011;2753;49.196;8.286;2024-01-07T02:22:51;7.30;;;4.90;;
5460;SDS011;2753;49.196;8.286;2024-01-07T02:25:17;8.17;;;5.60;;
5460;SDS011;2753;49.196;8.286;2024-01-07T02:27:42;11.23;;;5.17;;
5460;SDS011;2753;49.196;8.286;2024-01-07T02:30:08;8.53;;;5.17;;
5460;SDS011;2753;49.196;8.286;2024-01-07T02:32:37;8.07;;;5.07;;
5460;SDS011;2753;49.196;8.286;2024-01-07T02:35:03;10.90;;;5.00;;
5460;SDS011;2753;49.196;8.286;2024-01-07T02:37:29;6.80;;;4.90;;
5460;SDS011;2753;49.196;8.286;2024-01-07T02:39:55;20.20;;;5.27;;
5460;SDS011;2753;49.196;8.286;2024-01-07T02:42:20;7.50;;;4.77;;
5460;SDS011;2753;49.196;8.286;2024-01-07T02:44:49;9.30;;;6.20;;
5460;SDS011;2753;49.196;8.286;2024-01-07T02:50:32;12.80;;;5.60;;
5460;SDS011;2753;49.196;8.286;2024-01-07T02:52:58;8.70;;;5.60;;
5460;SDS011;2753;49.196;8.286;2024-01-07T02:55:23;10.33;;;4.90;;
5460;SDS011;2753;49.196;8.286;2024-01-07T02:57:49;7.10;;;4.93;;
5460;SDS011;2753;49.196;8.286;2024-01-07T03:00:15;7.43;;;5.00;;
5460;SDS011;2753;49.196;8.286;2024-01-07T03:02:41;8.63;;;5.43;;
5460;SDS011;2753;49.196;8.286;2024-01-07T03:05:09;11.93;;;5.80;;
5460;SDS011;2753;49.196;8.286;2024-01-07T03:07:37;6.50;;;4.80;;
5460;SDS011;2753;49.196;8.286;2024-01-07T03:10:04;7.50;;;5.13;;
5460;SDS011;2753;49.196;8.286;2024-01-07T03:12:30;7.70;;;5.20;;
5460;SDS011;2753;49.196;8.286;2024-01-07T03:14:56;8.93;;;5.60;;
5460;SDS011;2753;49.196;8.286;2024-01-07T03:17:22;8.43;;;5.80;;
5460;SDS011;2753;49.196;8.286;2024-01-07T03:19:49;8.97;;;5.00;;
5460;SDS011;2753;49.196;8.286;2024-01-07T03:22:14;13.37;;;6.30;;
5460;SDS011;2753;49.196;8.286;2024-01-07T03:24:41;7.63;;;5.67;;
5460;SDS011;2753;49.196;8.286;2024-01-07T03:27:07;10.13;;;6.30;;
5460;SDS011;2753;49.196;8.286;2024-01-07T03:29:33;8.87;;;5.60;;
5460;SDS011;2753;49.196;8.286;2024-01-07T03:31:58;8.43;;;6.00;;
5460;SDS011;2753;49.196;8.286;2024-01-07T03:34:24;8.57;;;5.63;;
5460;SDS011;2753;49.196;8.286;2024-01-07T03:36:52;6.60;;;5.17;;
5460;SDS011;2753;49.196;8.286;2024-01-07T03:39:18;9.10;;;5.93;;
5460;SDS011;2753;49.196;8.286;2024-01-07T03:41:44;9.10;;;5.30;;
5460;SDS011;2753;49.196;8.286;2024-01-07T03:44:10;11.80;;;6.50;;
5460;SDS011;2753;49.196;8.286;2024-01-07T03:46:35;9.90;;;5.73;;
5460;SDS011;2753;49.196;8.286;2024-01-07T03:49:01;14.30;;;7.63;;
5460;SDS011;2753;49.196;8.286;2024-01-07T03:51:29;11.93;;;5.80;;
5460;SDS011;2753;49.196;8.286;2024-01-07T03:53:55;14.50;;;7.20;;
5460;SDS011;2753;49.196;8.286;2024-01-07T03:56:21;11.27;;;6.43;;
5460;SDS011;2753;49.196;8.286;2024-01-07T03:58:46;12.83;;;5.07;;
5460;SDS011;2753;49.196;8.286;2024-01-07T04:01:15;9.73;;;6.50;;
5460;SDS011;2753;49.196;8.286;2024-01-07T04:03:42;10.70;;;5.80;;
5460;SDS011;2753;49.196;8.286;2024-01-07T04:06:08;13.30;;;6.03;;
5460;SDS011;2753;49.196;8.286;2024-01-07T04:08:34;10.13;;;7.20;;
5460;SDS011;2753;49.196;8.286;2024-01-07T04:11:01;11.70;;;7.53;;
5460;SDS011;2753;49.196;8.286;2024-01-07T04:13:27;8.77;;;6.17;;
5460;SDS011;2753;49.196;8.286;2024-01-07T04:15:53;9.93;;;6.80;;
5460;SDS011;2753;49.196;8.286;2024-01-07T04:18:18;13.07;;;6.90;;
5460;SDS011;2753;49.196;8.286;2024-01-07T04:20:44;9.90;;;6.17;;
5460;SDS011;2753;49.196;8.286;2024-01-07T04:23:10;7.83;;;5.90;;
5460;SDS011;2753;49.196;8.286;2024-01-07T04:25:35;11.07;;;6.57;;
5460;SDS011;2753;49.196;8.286;2024-01-07T04:28:01;11.20;;;5.90;;
5460;SDS011;2753;49.196;8.286;2024-01-07T04:30:27;10.47;;;6.50;;
5460;SDS011;2753;49.196;8.286;2024-01-07T04:32:52;9.93;;;6.40;;
5460;SDS011;2753;49.196;8.286;2024-01-07T04:35:21;7.57;;;6.23;;
5460;SDS011;2753;49.196;8.286;2024-01-07T04:37:47;9.93;;;6.83;;
5460;SDS011;2753;49.196;8.286;2024-01-07T04:40:13;14.20;;;6.90;;
5460;SDS011;2753;49.196;8.286;2024-01-07T04:42:40;9.27;;;6.73;;
5460;SDS011;2753;49.196;8.286;2024-01-07T04:45:05;11.57;;;6.77;;
5460;SDS011;2753;49.196;8.286;2024-01-07T04:47:32;11.90;;;7.20;;
5460;SDS011;2753;49.196;8.286;2024-01-07T04:50:04;13.90;;;7.90;;
5460;SDS011;2753;49.196;8.286;2024-01-07T04:52:30;9.60;;;6.33;;
5460;SDS011;2753;49.196;8.286;2024-01-07T04:54:56;10.80;;;6.93;;
5460;SDS011;2753;49.196;8.286;2024-01-07T04:57:22;10.83;;;6.90;;
5460;SDS011;2753;49.196;8.286;2024-01-07T04:59:48;9.60;;;6.60;;
5460;SDS011;2753;49.196;8.286;2024-01-07T05:02:18;9.07;;;6.60;;
5460;SDS011;2753;49.196;8.286;2024-01-07T05:04:43;10.70;;;6.10;;
5460;SDS011;2753;49.196;8.286;2024-01-07T05:07:09;11.97;;;6.10;;
5460;SDS011;2753;49.196;8.286;2024-01-07T05:09:35;10.03;;;6.50;;
5460;SDS011;2753;49.196;8.286;2024-01-07T05:12:00;10.13;;;7.10;;
5460;SDS011;2753;49.196;8.286;2024-01-07T05:14:26;9.90;;;7.30;;
5460;SDS011;2753;49.196;8.286;2024-01-07T05:16:55;8.87;;;6.03;;
5460;SDS011;2753;49.196;8.286;2024-01-07T05:19:21;19.43;;;8.27;;
5460;SDS011;2753;49.196;8.286;2024-01-07T05:21:47;11.30;;;7.23;;
5460;SDS011;2753;49.196;8.286;2024-01-07T05:24:13;11.37;;;7.70;;
5460;SDS011;2753;49.196;8.286;2024-01-07T05:26:39;12.30;;;7.30;;
5460;SDS011;2753;49.196;8.286;2024-01-07T05:29:06;9.97;;;7.23;;
5460;SDS011;2753;49.196;8.286;2024-01-07T05:31:31;10.67;;;7.60;;
5460;SDS011;2753;49.196;8.286;2024-01-07T05:33:57;10.17;;;6.77;;
5460;SDS011;2753;49.196;8.286;2024-01-07T05:36:22;8.73;;;5.50;;
5460;SDS011;2753;49.196;8.286;2024-01-07T05:38:48;10.07;;;7.13;;
5460;SDS011;2753;49.196;8.286;2024-01-07T05:41:14;12.03;;;7.33;;
5460;SDS011;2753;49.196;8.286;2024-01-07T05:43:39;9.90;;;6.70;;
5460;SDS011;2753;49.196;8.286;2024-01-07T05:46:08;11.00;;;6.57;;
5460;SDS011;2753;49.196;8.286;2024-01-07T05:48:40;10.13;;;7.00;;
5460;SDS011;2753;49.196;8.286;2024-01-07T05:51:08;9.63;;;7.60;;
5460;SDS011;2753;49.196;8.286;2024-01-07T05:53:34;7.73;;;6.87;;
5460;SDS011;2753;49.196;8.286;2024-01-07T05:55:59;12.90;;;8.57;;
5460;SDS011;2753;49.196;8.286;2024-01-07T05:58:29;13.57;;;7.43;;
5460;SDS011;2753;49.196;8.286;2024-01-07T06:00:54;7.50;;;5.67;;
5460;SDS011;2753;49.196;8.286;2024-01-07T06:03:20;10.50;;;6.53;;
5460;SDS011;2753;49.196;8.286;2024-01-07T06:05:46;12.83;;;7.93;;
5460;SDS011;2753;49.196;8.286;2024-01-07T06:08:11;10.53;;;6.63;;
5460;SDS011;2753;49.196;8.286;2024-01-07T06:10:38;11.27;;;6.93;;
5460;SDS011;2753;49.196;8.286;2024-01-07T06:13:07;14.97;;;7.97;;
5460;SDS011;2753;49.196;8.286;2024-01-07T06:15:33;10.10;;;6.10;;
5460;SDS011;2753;49.196;8.286;2024-01-07T06:17:58;9.80;;;6.73;;
5460;SDS011;2753;49.196;8.286;2024-01-07T06:20:24;11.97;;;7.20;;
5460;SDS011;2753;49.196;8.286;2024-01-07T06:22:50;10.67;;;7.00;;
5460;SDS011;2753;49.196;8.286;2024-01-07T06:25:16;9.23;;;6.70;;
5460;SDS011;2753;49.196;8.286;2024-01-07T06:27:42;10.13;;;6.43;;
5460;SDS011;2753;49.196;8.286;2024-01-07T06:30:08;8.83;;;6.27;;
5460;SDS011;2753;49.196;8.286;2024-01-07T06:32:34;13.73;;;8.07;;
5460;SDS011;2753;49.196;8.286;2024-01-07T06:35:00;10.50;;;6.70;;
5460;SDS011;2753;49.196;8.286;2024-01-07T06:37:28;10.27;;;6.70;;
5460;SDS011;2753;49.196;8.286;2024-01-07T06:39:55;8.37;;;5.97;;
5460;SDS011;2753;49.196;8.286;2024-01-07T06:42:21;11.07;;;7.27;;
5460;SDS011;2753;49.196;8.286;2024-01-07T06:44:47;10.10;;;7.67;;
5460;SDS011;2753;49.196;8.286;2024-01-07T06:47:13;10.27;;;6.37;;
5460;SDS011;2753;49.196;8.286;2024-01-07T06:49:39;11.80;;;6.80;;
5460;SDS011;2753;49.196;8.286;2024-01-07T06:52:05;11.60;;;7.17;;
5460;SDS011;2753;49.196;8.286;2024-01-07T06:54:31;11.27;;;6.60;;
5460;SDS011;2753;49.196;8.286;2024-01-07T06:56:59;12.00;;;7.53;;
5460;SDS011;2753;49.196;8.286;2024-01-07T06:59:25;10.90;;;7.27;;
5460;SDS011;2753;49.196;8.286;2024-01-07T07:01:51;12.07;;;6.93;;
5460;SDS011;2753;49.196;8.286;2024-01-07T07:04:18;10.57;;;6.90;;
5460;SDS011;2753;49.196;8.286;2024-01-07T07:06:45;13.43;;;7.80;;
5460;SDS011;2753;49.196;8.286;2024-01-07T07:09:11;12.43;;;7.33;;
5460;SDS011;2753;49.196;8.286;2024-01-07T07:11:37;13.17;;;6.70;;
5460;SDS011;2753;49.196;8.286;2024-01-07T07:14:03;13.83;;;7.33;;
5460;SDS011;2753;49.196;8.286;2024-01-07T07:16:29;12.67;;;7.23;;
5460;SDS011;2753;49.196;8.286;2024-01-07T07:18:54;11.57;;;7.50;;
5460;SDS011;2753;49.196;8.286;2024-01-07T07:21:20;11.40;;;7.40;;
5460;SDS011;2753;49.196;8.286;2024-01-07T07:23:45;13.53;;;8.10;;
5460;SDS011;2753;49.196;8.286;2024-01-07T07:26:11;12.63;;;7.23;;
5460;SDS011;2753;49.196;8.286;2024-01-07T07:28:37;10.60;;;6.27;;
5460;SDS011;2753;49.196;8.286;2024-01-07T07:31:02;12.40;;;8.23;;
5460;SDS011;2753;49.196;8.286;2024-01-07T07:33:28;13.47;;;7.77;;
5460;SDS011;2753;49.196;8.286;2024-01-07T07:35:54;15.97;;;7.57;;
5460;SDS011;2753;49.196;8.286;2024-01-07T07:38:19;11.73;;;6.70;;
5460;SDS011;2753;49.196;8.286;2024-01-07T07:40:45;12.43;;;7.27;;
5460;SDS011;2753;49.196;8.286;2024-01-07T07:43:17;12.80;;;6.70;;
5460;SDS011;2753;49.196;8.286;2024-01-07T07:45:46;9.30;;;6.50;;
5460;SDS011;2753;49.196;8.286;2024-01-07T07:48:12;9.43;;;6.40;;
5460;SDS011;2753;49.196;8.286;2024-01-07T07:50:37;14.20;;;6.90;;
5460;SDS011;2753;49.196;8.286;2024-01-07T07:53:06;11.17;;;7.20;;
5460;SDS011;2753;49.196;8.286;2024-01-07T07:55:32;12.63;;;6.53;;
5460;SDS011;2753;49.196;8.286;2024-01-07T07:57:58;11.47;;;7.33;;
5460;SDS011;2753;49.196;8.286;2024-01-07T08:00:23;15.53;;;7.40;;
5460;SDS011;2753;49.196;8.286;2024-01-07T08:02:49;9.90;;;6.53;;
5460;SDS011;2753;49.196;8.286;2024-01-07T08:05:15;12.20;;;7.60;;
5460;SDS011;2753;49.196;8.286;2024-01-07T08:07:44;10.10;;;7.10;;
5460;SDS011;2753;49.196;8.286;2024-01-07T08:10:10;10.07;;;5.90;;
5460;SDS011;2753;49.196;8.286;2024-01-07T08:12:36;11.87;;;7.13;;
5460;SDS011;2753;49.196;8.286;2024-01-07T08:15:02;10.70;;;6.63;;
5460;SDS011;2753;49.196;8.286;2024-01-07T08:17:27;10.47;;;6.57;;
5460;SDS011;2753;49.196;8.286;2024-01-07T08:19:53;8.70;;;7.03;;
5460;SDS011;2753;49.196;8.286;2024-01-07T08:22:22;12.80;;;7.07;;
5460;SDS011;2753;49.196;8.286;2024-01-07T08:24:48;12.50;;;8.10;;
5460;SDS011;2753;49.196;8.286;2024-01-07T08:27:13;12.80;;;7.90;;
5460;SDS011;2753;49.196;8.286;2024-01-07T08:29:39;9.93;;;7.07;;
5460;SDS011;2753;49.196;8.286;2024-01-07T08:32:09;12.13;;;7.20;;
5460;SDS011;2753;49.196;8.286;2024-01-07T08:34:34;14.47;;;7.70;;
5460;SDS011;2753;49.196;8.286;2024-01-07T08:37:01;14.90;;;9.60;;
5460;SDS011;2753;49.196;8.286;2024-01-07T08:39:26;17.03;;;9.87;;
5460;SDS011;2753;49.196;8.286;2024-01-07T08:41:54;12.50;;;8.03;;
5460;SDS011;2753;49.196;8.286;2024-01-07T08:44:19;13.47;;;7.63;;
5460;SDS011;2753;49.196;8.286;2024-01-07T08:46:45;19.47;;;10.30;;
5460;SDS011;2753;49.196;8.286;2024-01-07T08:49:11;14.67;;;8.90;;
5460;SDS011;2753;49.196;8.286;2024-01-07T08:51:36;17.23;;;9.07;;
5460;SDS011;2753;49.196;8.286;2024-01-07T08:54:03;15.77;;;8.97;;
5460;SDS011;2753;49.196;8.286;2024-01-07T08:56:29;17.53;;;9.10;;
5460;SDS011;2753;49.196;8.286;2024-01-07T08:58:55;18.33;;;10.03;;
5460;SDS011;2753;49.196;8.286;2024-01-07T09:01:20;21.73;;;10.33;;
5460;SDS011;2753;49.196;8.286;2024-01-07T09:03:46;22.90;;;11.90;;
5460;SDS011;2753;49.196;8.286;2024-01-07T09:06:12;22.63;;;11.97;;
5460;SDS011;2753;49.196;8.286;2024-01-07T09:08:37;15.80;;;9.53;;
5460;SDS011;2753;49.196;8.286;2024-01-07T09:11:03;20.53;;;11.00;;
5460;SDS011;2753;49.196;8.286;2024-01-07T09:13:31;20.33;;;11.27;;
5460;SDS011;2753;49.196;8.286;2024-01-07T09:15:57;21.50;;;12.60;;
5460;SDS011;2753;49.196;8.286;2024-01-07T09:18:23;17.83;;;11.17;;
5460;SDS011;2753;49.196;8.286;2024-01-07T09:20:48;19.20;;;10.90;;
5460;SDS011;2753;49.196;8.286;2024-01-07T09:23:14;17.63;;;11.13;;
5460;SDS011;2753;49.196;8.286;2024-01-07T09:25:43;20.70;;;11.33;;
5460;SDS011;2753;49.196;8.286;2024-01-07T09:28:08;22.27;;;10.83;;
5460;SDS011;2753;49.196;8.286;2024-01-07T09:30:34;17.20;;;11.00;;
5460;SDS011;2753;49.196;8.286;2024-01-07T09:33:00;22.23;;;11.40;;
5460;SDS011;2753;49.196;8.286;2024-01-07T09:35:26;18.10;;;10.07;;
5460;SDS011;2753;49.196;8.286;2024-01-07T09:37:52;16.53;;;10.17;;
5460;SDS011;2753;49.196;8.286;2024-01-07T09:40:18;16.27;;;9.83;;
5460;SDS011;2753;49.196;8.286;2024-01-07T09:42:46;17.00;;;8.73;;
5460;SDS011;2753;49.196;8.286;2024-01-07T09:45:12;19.97;;;9.80;;
5460;SDS011;2753;49.196;8.286;2024-01-07T09:47:42;18.40;;;10.60;;
5460;SDS011;2753;49.196;8.286;2024-01-07T09:50:11;14.43;;;9.10;;
5460;SDS011;2753;49.196;8.286;2024-01-07T09:52:38;23.27;;;11.20;;
5460;SDS011;2753;49.196;8.286;2024-01-07T09:55:07;15.53;;;9.77;;
5460;SDS011;2753;49.196;8.286;2024-01-07T09:57:34;17.70;;;9.83;;
5460;SDS011;2753;49.196;8.286;2024-01-07T10:00:03;18.60;;;9.10;;
5460;SDS011;2753;49.196;8.286;2024-01-07T10:02:29;17.70;;;10.13;;
5460;SDS011;2753;49.196;8.286;2024-01-07T10:04:55;16.00;;;9.87;;
5460;SDS011;2753;49.196;8.286;2024-01-07T10:07:21;16.07;;;10.20;;
5460;SDS011;2753;49.196;8.286;2024-01-07T10:09:46;18.30;;;10.57;;
5460;SDS011;2753;49.196;8.286;2024-01-07T10:12:12;17.73;;;10.70;;
5460;SDS011;2753;49.196;8.286;2024-01-07T10:14:38;18.63;;;10.60;;
5460;SDS011;2753;49.196;8.286;2024-01-07T10:17:23;17.97;;;9.60;;
5460;SDS011;2753;49.196;8.286;2024-01-07T10:19:53;16.63;;;9.30;;
5460;SDS011;2753;49.196;8.286;2024-01-07T10:22:18;14.87;;;9.60;;
5460;SDS011;2753;49.196;8.286;2024-01-07T10:24:45;12.50;;;7.97;;
5460;SDS011;2753;49.196;8.286;2024-01-07T10:27:10;16.13;;;9.03;;
5460;SDS011;2753;49.196;8.286;2024-01-07T10:29:36;15.70;;;9.50;;
5460;SDS011;2753;49.196;8.286;2024-01-07T10:32:02;14.80;;;9.07;;
5460;SDS011;2753;49.196;8.286;2024-01-07T10:34:34;14.87;;;9.50;;
5460;SDS011;2753;49.196;8.286;2024-01-07T10:37:01;13.63;;;8.23;;
5460;SDS011;2753;49.196;8.286;2024-01-07T10:39:28;19.30;;;9.47;;
5460;SDS011;2753;49.196;8.286;2024-01-07T10:41:57;16.70;;;9.33;;
5460;SDS011;2753;49.196;8.286;2024-01-07T10:44:27;13.40;;;8.53;;
5460;SDS011;2753;49.196;8.286;2024-01-07T10:46:55;14.20;;;8.43;;
5460;SDS011;2753;49.196;8.286;2024-01-07T10:49:22;15.20;;;8.73;;
5460;SDS011;2753;49.196;8.286;2024-01-07T10:52:07;12.73;;;7.97;;
5460;SDS011;2753;49.196;8.286;2024-01-07T10:54:34;13.40;;;7.67;;
5460;SDS011;2753;49.196;8.286;2024-01-07T10:57:46;21.23;;;10.30;;
5460;SDS011;2753;49.196;8.286;2024-01-07T10:59:49;13.30;;;7.80;;
5460;SDS011;2753;49.196;8.286;2024-01-07T11:02:18;16.90;;;9.03;;
5460;SDS011;2753;49.196;8.286;2024-01-07T11:07:46;12.33;;;7.70;;
5460;SDS011;2753;49.196;8.286;2024-01-07T11:10:22;22.67;;;10.43;;
5460;SDS011;2753;49.196;8.286;2024-01-07T11:12:55;15.27;;;9.17;;
5460;SDS011;2753;49.196;8.286;2024-01-07T11:18:20;15.77;;;8.97;;
5460;SDS011;2753;49.196;8.286;2024-01-07T11:20:47;13.97;;;9.00;;
5460;SDS011;2753;49.196;8.286;2024-01-07T11:23:26;18.00;;;9.20;;
5460;SDS011;2753;49.196;8.286;2024-01-07T11:25:59;13.27;;;7.90;;
5460;SDS011;2753;49.196;8.286;2024-01-07T11:28:44;15.83;;;9.30;;
5460;SDS011;2753;49.196;8.286;2024-01-07T11:31:13;17.30;;;8.93;;
5460;SDS011;2753;49.196;8.286;2024-01-07T11:33:47;15.70;;;7.63;;
5460;SDS011;2753;49.196;8.286;2024-01-07T11:36:17;16.20;;;9.77;;
5460;SDS011;2753;49.196;8.286;2024-01-07T11:38:44;15.70;;;8.70;;
5460;SDS011;2753;49.196;8.286;2024-01-07T11:41:14;23.23;;;9.13;;
5460;SDS011;2753;49.196;8.286;2024-01-07T11:43:56;12.67;;;7.90;;
5460;SDS011;2753;49.196;8.286;2024-01-07T11:46:24;15.60;;;8.40;;
5460;SDS011;2753;49.196;8.286;2024-01-07T11:48:55;13.50;;;8.57;;
5460;SDS011;2753;49.196;8.286;2024-01-07T11:51:30;15.80;;;8.53;;
5460;SDS011;2753;49.196;8.286;2024-01-07T11:53:57;12.27;;;8.20;;
5460;SDS011;2753;49.196;8.286;2024-01-07T11:56:24;12.40;;;7.63;;
5460;SDS011;2753;49.196;8.286;2024-01-07T11:58:51;12.60;;;8.60;;
5460;SDS011;2753;49.196;8.286;2024-01-07T12:01:17;9.10;;;7.00;;
5460;SDS011;2753;49.196;8.286;2024-01-07T12:03:43;11.00;;;7.83;;
5460;SDS011;2753;49.196;8.286;2024-01-07T12:06:10;11.27;;;8.10;;
5460;SDS011;2753;49.196;8.286;2024-01-07T12:08:39;10.27;;;6.63;;
5460;SDS011;2753;49.196;8.286;2024-01-07T12:11:08;12.70;;;6.63;;
5460;SDS011;2753;49.196;8.286;2024-01-07T12:13:36;9.60;;;6.80;;
5460;SDS011;2753;49.196;8.286;2024-01-07T12:16:02;10.10;;;6.60;;
5460;SDS011;2753;49.196;8.286;2024-01-07T12:18:29;11.33;;;7.27;;
5460;SDS011;2753;49.196;8.286;2024-01-07T12:20:58;10.77;;;6.47;;
5460;SDS011;2753;49.196;8.286;2024-01-07T12:23:25;9.87;;;6.30;;
5460;SDS011;2753;49.196;8.286;2024-01-07T12:25:52;9.20;;;7.23;;
5460;SDS011;2753;49.196;8.286;2024-01-07T12:28:21;12.07;;;6.60;;
5460;SDS011;2753;49.196;8.286;2024-01-07T12:30:50;10.83;;;6.40;;
5460;SDS011;2753;49.196;8.286;2024-01-07T12:33:17;9.43;;;6.83;;
5460;SDS011;2753;49.196;8.286;2024-01-07T12:35:45;9.00;;;6.10;;
5460;SDS011;2753;49.196;8.286;2024-01-07T12:38:11;11.90;;;6.30;;
5460;SDS011;2753;49.196;8.286;2024-01-07T12:40:37;8.87;;;6.37;;
5460;SDS011;2753;49.196;8.286;2024-01-07T12:43:04;8.63;;;6.40;;
5460;SDS011;2753;49.196;8.286;2024-01-07T12:45:31;8.20;;;5.90;;
5460;SDS011;2753;49.196;8.286;2024-01-07T12:47:58;9.67;;;6.13;;
5460;SDS011;2753;49.196;8.286;2024-01-07T12:50:27;7.00;;;5.40;;
5460;SDS011;2753;49.196;8.286;2024-01-07T12:52:55;8.03;;;6.50;;
5460;SDS011;2753;49.196;8.286;2024-01-07T12:55:22;8.70;;;6.27;;
5460;SDS011;2753;49.196;8.286;2024-01-07T12:57:48;11.50;;;6.03;;
5460;SDS011;2753;49.196;8.286;2024-01-07T13:00:14;9.53;;;5.50;;
5460;SDS011;2753;49.196;8.286;2024-01-07T13:02:40;10.97;;;7.13;;
5460;SDS011;2753;49.196;8.286;2024-01-07T13:05:06;12.63;;;6.17;;
5460;SDS011;2753;49.196;8.286;2024-01-07T13:07:32;11.90;;;7.20;;
5460;SDS011;2753;49.196;8.286;2024-01-07T13:09:58;8.43;;;6.87;;
5460;SDS011;2753;49.196;8.286;2024-01-07T13:12:24;7.87;;;6.37;;
5460;SDS011;2753;49.196;8.286;2024-01-07T13:14:51;11.10;;;6.90;;
5460;SDS011;2753;49.196;8.286;2024-01-07T13:17:17;10.57;;;6.80;;
5460;SDS011;2753;49.196;8.286;2024-01-07T13:19:43;12.13;;;6.87;;
5460;SDS011;2753;49.196;8.286;2024-01-07T13:22:09;7.67;;;5.60;;
5460;SDS011;2753;49.196;8.286;2024-01-07T13:24:35;9.20;;;6.23;;
5460;SDS011;2753;49.196;8.286;2024-01-07T13:27:01;11.07;;;7.27;;
5460;SDS011;2753;49.196;8.286;2024-01-07T13:29:27;9.20;;;6.07;;
5460;SDS011;2753;49.196;8.286;2024-01-07T13:31:53;12.93;;;7.67;;
5460;SDS011;2753;49.196;8.286;2024-01-07T13:34:18;11.40;;;7.27;;
5460;SDS011;2753;49.196;8.286;2024-01-07T13:36:44;8.80;;;6.57;;
5460;SDS011;2753;49.196;8.286;2024-01-07T13:39:10;12.37;;;7.40;;
5460;SDS011;2753;49.196;8.286;2024-01-07T13:41:36;13.20;;;7.30;;
5460;SDS011;2753;49.196;8.286;2024-01-07T13:44:02;12.40;;;7.17;;
5460;SDS011;2753;49.196;8.286;2024-01-07T13:46:32;10.20;;;6.73;;
5460;SDS011;2753;49.196;8.286;2024-01-07T13:48:58;12.73;;;7.73;;
5460;SDS011;2753;49.196;8.286;2024-01-07T13:51:24;12.53;;;7.73;;
5460;SDS011;2753;49.196;8.286;2024-01-07T13:53:51;12.30;;;7.40;;
5460;SDS011;2753;49.196;8.286;2024-01-07T13:56:17;11.80;;;7.33;;
5460;SDS011;2753;49.196;8.286;2024-01-07T13:58:42;14.43;;;7.77;;
5460;SDS011;2753;49.196;8.286;2024-01-07T14:01:11;13.83;;;7.00;;
5460;SDS011;2753;49.196;8.286;2024-01-07T14:03:37;9.63;;;6.63;;
5460;SDS011;2753;49.196;8.286;2024-01-07T14:06:03;14.53;;;7.90;;
5460;SDS011;2753;49.196;8.286;2024-01-07T14:08:34;12.17;;;7.00;;
5460;SDS011;2753;49.196;8.286;2024-01-07T14:11:12;12.40;;;7.13;;
5460;SDS011;2753;49.196;8.286;2024-01-07T14:13:37;10.20;;;6.40;;
5460;SDS011;2753;49.196;8.286;2024-01-07T14:16:03;11.50;;;7.33;;
5460;SDS011;2753;49.196;8.286;2024-01-07T14:18:30;14.13;;;7.70;;
5460;SDS011;2753;49.196;8.286;2024-01-07T14:20:55;11.87;;;6.87;;
5460;SDS011;2753;49.196;8.286;2024-01-07T14:23:21;11.70;;;6.53;;
5460;SDS011;2753;49.196;8.286;2024-01-07T14:25:46;8.77;;;5.40;;
5460;SDS011;2753;49.196;8.286;2024-01-07T14:28:13;11.40;;;6.27;;
5460;SDS011;2753;49.196;8.286;2024-01-07T14:30:38;11.10;;;6.00;;
5460;SDS011;2753;49.196;8.286;2024-01-07T14:33:04;8.80;;;5.77;;
5460;SDS011;2753;49.196;8.286;2024-01-07T14:35:32;12.50;;;6.97;;
5460;SDS011;2753;49.196;8.286;2024-01-07T14:37:58;9.83;;;6.33;;
5460;SDS011;2753;49.196;8.286;2024-01-07T14:40:25;13.40;;;7.40;;
5460;SDS011;2753;49.196;8.286;2024-01-07T14:42:51;11.23;;;6.30;;
5460;SDS011;2753;49.196;8.286;2024-01-07T14:45:25;9.30;;;5.77;;
5460;SDS011;2753;49.196;8.286;2024-01-07T14:47:51;10.73;;;5.90;;
5460;SDS011;2753;49.196;8.286;2024-01-07T14:50:18;8.97;;;5.70;;
5460;SDS011;2753;49.196;8.286;2024-01-07T14:52:44;13.30;;;6.03;;
5460;SDS011;2753;49.196;8.286;2024-01-07T14:55:10;10.77;;;5.20;;
5460;SDS011;2753;49.196;8.286;2024-01-07T14:57:37;11.43;;;5.43;;
5460;SDS011;2753;49.196;8.286;2024-01-07T15:00:03;11.73;;;6.93;;
5460;SDS011;2753;49.196;8.286;2024-01-07T15:02:30;11.30;;;6.53;;
5460;SDS011;2753;49.196;8.286;2024-01-07T15:04:56;13.73;;;7.40;;
5460;SDS011;2753;49.196;8.286;2024-01-07T15:07:22;10.73;;;5.03;;
5460;SDS011;2753;49.196;8.286;2024-01-07T15:09:48;14.23;;;7.67;;
5460;SDS011;2753;49.196;8.286;2024-01-07T15:12:14;13.53;;;7.83;;